Time;durP1;ratioP1;P1;durP2;ratioP2;P2;SDS_P1;SDS_P2;PMS_P1;PMS_P2;Temp;Humidity;BMP_temperature;BMP_pressure;BME280_temperature;BME280_humidity;BME280_pressure;Samples;Min_cycle;Max_cycle;Signal;HPM_P1;HPM_P2
2022/11/26 00:02:23;;;;;;;4.07;2.20;;;20.80;63.30;;;;;;4996540;28;91210;-82
2022/11/26 00:04:53;;;;;;;3.40;2.28;;;20.80;63.10;;;;;;4996135;28;89436;-82
2022/11/26 00:07:25;;;;;;;6.45;2.47;;;20.80;63.00;;;;;;4999868;28;87505;-82
2022/11/26 00:09:52;;;;;;;6.00;2.38;;;20.70;63.10;;;;;;4997357;28;86963;-81
2022/11/26 00:12:25;;;;;;;4.07;2.25;;;20.70;63.10;;;;;;4997290;28;89693;-82
2022/11/26 00:14:51;;;;;;;6.43;2.60;;;20.70;63.10;;;;;;4997046;28;88173;-82
2022/11/26 00:17:18;;;;;;;3.92;2.13;;;20.70;63.10;;;;;;4999503;28;87139;-82
2022/11/26 00:19:44;;;;;;;4.70;2.42;;;20.70;63.20;;;;;;5016052;27;88791;-82
2022/11/26 00:22:31;;;;;;;4.20;2.10;;;20.70;63.10;;;;;;5017812;28;87991;-81
2022/11/26 00:24:57;;;;;;;3.60;2.10;;;20.60;63.20;;;;;;5014726;28;94249;-82
2022/11/26 00:27:26;;;;;;;3.38;1.92;;;20.60;63.30;;;;;;5018910;27;88621;-82
2022/11/26 00:29:52;;;;;;;3.65;2.00;;;20.60;63.10;;;;;;5019640;27;88951;-82
2022/11/26 00:32:21;;;;;;;4.30;2.05;;;20.60;63.10;;;;;;5017710;27;87386;-81
2022/11/26 00:34:46;;;;;;;4.32;2.13;;;20.60;63.30;;;;;;5016765;27;88376;-81
2022/11/26 00:37:24;;;;;;;3.33;2.33;;;20.60;63.00;;;;;;5019635;28;87497;-82
2022/11/26 00:39:50;;;;;;;3.45;1.73;;;20.60;63.10;;;;;;4998983;28;89665;-81
2022/11/26 00:42:17;;;;;;;5.97;2.55;;;20.60;63.20;;;;;;5012566;28;89627;-81
2022/11/26 00:44:43;;;;;;;4.22;2.30;;;20.50;63.00;;;;;;5018849;27;88335;-82
2022/11/26 00:47:09;;;;;;;4.60;2.28;;;20.60;63.20;;;;;;5017879;27;87644;-81
2022/11/26 00:49:35;;;;;;;4.40;2.22;;;20.50;63.10;;;;;;5017217;27;87555;-82
2022/11/26 00:52:00;;;;;;;5.32;2.47;;;20.50;63.20;;;;;;5016960;28;89636;-82
2022/11/26 00:54:27;;;;;;;2.65;1.80;;;20.50;63.10;;;;;;5016139;27;88025;-81
2022/11/26 00:56:53;;;;;;;3.42;1.90;;;20.50;63.30;;;;;;5017757;27;87304;-81
2022/11/26 00:59:21;;;;;;;4.10;2.10;;;20.50;63.20;;;;;;5016789;27;87456;-82
2022/11/26 01:01:48;;;;;;;2.70;2.00;;;20.50;63.30;;;;;;5017950;28;89140;-81
2022/11/26 01:04:13;;;;;;;3.67;1.80;;;20.40;63.30;;;;;;5015572;27;87478;-82
2022/11/26 01:06:42;;;;;;;4.43;2.20;;;20.40;63.10;;;;;;5018001;28;87367;-82
2022/11/26 01:09:14;;;;;;;3.47;1.73;;;20.40;63.30;;;;;;5017657;27;87741;-82
2022/11/26 01:11:40;;;;;;;4.30;2.10;;;20.40;63.30;;;;;;5007613;27;91268;-82
2022/11/26 01:14:12;;;;;;;3.83;2.15;;;20.40;63.30;;;;;;5020938;27;88103;-82
2022/11/26 01:16:40;;;;;;;2.95;1.92;;;20.40;63.30;;;;;;5016560;28;88178;-82
2022/11/26 01:19:11;;;;;;;4.90;2.07;;;20.40;63.20;;;;;;5016879;28;87502;-81
2022/11/26 01:21:36;;;;;;;2.60;1.70;;;20.40;63.10;;;;;;5017952;27;89740;-82
2022/11/26 01:24:02;;;;;;;2.95;1.73;;;20.40;63.00;;;;;;5007166;28;91411;-82
2022/11/26 01:26:33;;;;;;;3.72;2.10;;;20.30;63.00;;;;;;5018007;27;87341;-82
2022/11/26 01:28:58;;;;;;;2.30;1.80;;;20.30;63.10;;;;;;5016221;28;87572;-81
2022/11/26 01:31:27;;;;;;;4.13;2.03;;;20.30;63.00;;;;;;5017802;27;88060;-82
2022/11/26 01:33:53;;;;;;;3.85;2.13;;;20.30;63.10;;;;;;5019732;28;87766;-81
2022/11/26 01:36:24;;;;;;;3.10;2.10;;;20.30;62.90;;;;;;5018798;27;87318;-82
2022/11/26 01:39:19;;;;;;;3.45;1.83;;;20.30;63.00;;;;;;5016293;28;87875;-82
2022/11/26 01:42:25;;;;;;;4.93;2.35;;;20.30;63.00;;;;;;4934590;28;90291;-82
2022/11/26 01:44:51;;;;;;;3.88;2.33;;;20.30;63.00;;;;;;4935106;28;89161;-82
2022/11/26 01:47:28;;;;;;;3.92;2.08;;;20.30;63.80;;;;;;4931612;28;87264;-82
2022/11/26 01:50:30;;;;;;;3.35;1.85;;;20.30;63.10;;;;;;4925722;28;90870;-82
2022/11/26 01:53:03;;;;;;;4.03;2.10;;;20.20;62.90;;;;;;4926751;28;88115;-82
2022/11/26 01:55:35;;;;;;;3.10;2.20;;;20.20;62.90;;;;;;4935646;28;87924;-81
2022/11/26 01:58:06;;;;;;;3.30;1.70;;;20.20;62.90;;;;;;4936368;28;87212;-81
2022/11/26 02:00:32;;;;;;;4.13;2.10;;;20.20;62.90;;;;;;4937545;28;87532;-82
2022/11/26 02:02:58;;;;;;;4.75;2.33;;;20.20;63.20;;;;;;4935503;28;88567;-81
2022/11/26 02:05:29;;;;;;;4.90;2.45;;;20.20;63.00;;;;;;4934921;28;88164;-82
2022/11/26 02:07:55;;;;;;;3.33;1.80;;;20.20;62.90;;;;;;4910669;28;88828;-82
2022/11/26 02:10:21;;;;;;;4.05;2.00;;;20.20;63.00;;;;;;4933543;28;87493;-82
2022/11/26 02:12:48;;;;;;;3.45;1.70;;;20.10;62.80;;;;;;4935148;28;89028;-81
2022/11/26 02:15:14;;;;;;;2.65;1.60;;;20.10;62.90;;;;;;4918800;28;89410;-82
2022/11/26 02:17:46;;;;;;;6.18;2.65;;;20.10;63.00;;;;;;4940323;28;87496;-81
2022/11/26 02:20:42;;;;;;;4.20;1.98;;;20.10;63.00;;;;;;5016873;28;88910;-81
2022/11/26 02:23:29;;;;;;;3.65;2.20;;;20.10;63.10;;;;;;5012002;28;88619;-81
2022/11/26 02:26:13;;;;;;;2.72;1.80;;;20.10;63.10;;;;;;5002521;28;89099;-82
2022/11/26 02:28:49;;;;;;;5.35;1.83;;;20.10;63.00;;;;;;5000314;28;87047;-82
2022/11/26 02:31:27;;;;;;;3.30;1.83;;;20.00;63.00;;;;;;4983884;28;87605;-80
2022/11/26 02:34:19;;;;;;;3.47;1.85;;;20.00;63.00;;;;;;5004163;28;89655;-82
2022/11/26 02:36:57;;;;;;;3.08;1.75;;;20.00;62.90;;;;;;4983931;28;93189;-82
2022/11/26 02:39:26;;;;;;;4.57;2.10;;;20.00;63.00;;;;;;5001095;28;87486;-82
2022/11/26 02:41:53;;;;;;;;;;;20.00;62.80;;;;;;5004539;28;87488;-82
2022/11/26 02:44:22;;;;;;;2.25;1.80;;;20.00;63.00;;;;;;5005006;28;87575;-82
2022/11/26 02:46:57;;;;;;;2.58;1.60;;;20.00;62.80;;;;;;5002286;28;87725;-81
2022/11/26 02:49:25;;;;;;;3.65;2.20;;;20.00;62.80;;;;;;5003358;28;87551;-82
2022/11/26 02:51:57;;;;;;;3.28;1.70;;;20.00;62.80;;;;;;5004411;28;87065;-82
2022/11/26 02:54:24;;;;;;;4.07;2.00;;;20.00;62.70;;;;;;5003108;28;87851;-82
2022/11/26 02:56:52;;;;;;;2.17;1.48;;;20.00;62.90;;;;;;5009131;28;87838;-82
2022/11/26 02:59:18;;;;;;;3.05;1.70;;;20.00;62.80;;;;;;5015082;27;88807;-82
2022/11/26 03:01:51;;;;;;;3.95;1.83;;;19.90;62.90;;;;;;5016241;28;88881;-82
2022/11/26 03:04:23;;;;;;;3.80;1.92;;;19.90;62.90;;;;;;5015917;27;88288;-82
2022/11/26 03:06:51;;;;;;;3.22;1.77;;;19.90;62.70;;;;;;5015441;28;88333;-81
2022/11/26 03:09:17;;;;;;;2.97;1.70;;;19.90;62.80;;;;;;5016319;27;87406;-82
2022/11/26 03:11:43;;;;;;;2.80;1.58;;;19.90;62.70;;;;;;5015797;27;87432;-82
2022/11/26 03:14:09;;;;;;;2.72;1.80;;;19.90;62.90;;;;;;5013856;27;89842;-82
2022/11/26 03:16:35;;;;;;;5.60;2.22;;;19.90;62.80;;;;;;5014430;28;88856;-82
2022/11/26 03:19:00;;;;;;;3.33;1.90;;;19.90;62.80;;;;;;5017206;28;87428;-81
2022/11/26 03:21:26;;;;;;;3.28;1.80;;;19.90;62.80;;;;;;5017576;27;87932;-81
2022/11/26 03:23:52;;;;;;;3.50;1.83;;;19.90;62.90;;;;;;5019636;27;88593;-81
2022/11/26 03:26:17;;;;;;;2.63;1.73;;;19.90;62.80;;;;;;5019647;28;88466;-82
2022/11/26 03:28:43;;;;;;;3.20;1.80;;;19.80;62.80;;;;;;5017456;27;87393;-81
2022/11/26 03:31:08;;;;;;;2.75;1.70;;;19.80;62.80;;;;;;5019531;28;86935;-81
2022/11/26 03:33:34;;;;;;;3.47;2.00;;;19.80;62.90;;;;;;5018327;27;87611;-81
2022/11/26 03:35:59;;;;;;;3.33;2.08;;;19.80;62.80;;;;;;5020002;27;88165;-82
2022/11/26 03:38:25;;;;;;;3.03;1.80;;;19.80;62.80;;;;;;5019202;28;95092;-81
2022/11/26 03:40:59;;;;;;;1.85;1.40;;;19.80;62.90;;;;;;5019016;27;86633;-81
2022/11/26 03:43:25;;;;;;;2.40;1.52;;;19.80;62.90;;;;;;5019505;27;88352;-81
2022/11/26 03:45:50;;;;;;;3.00;1.80;;;19.80;62.90;;;;;;5018866;28;88223;-82
2022/11/26 03:48:16;;;;;;;3.22;1.73;;;19.80;62.90;;;;;;5019622;27;88291;-82
2022/11/26 03:50:41;;;;;;;2.65;1.48;;;19.80;62.70;;;;;;5017799;27;87758;-82
2022/11/26 03:53:07;;;;;;;3.83;1.88;;;19.70;62.70;;;;;;5017823;28;88151;-82
2022/11/26 03:55:33;;;;;;;3.05;1.80;;;19.70;62.80;;;;;;5018588;27;88251;-82
2022/11/26 03:57:59;;;;;;;3.83;1.73;;;19.70;62.90;;;;;;5018034;28;86948;-81
2022/11/26 04:00:24;;;;;;;3.00;1.95;;;19.80;62.80;;;;;;5018770;27;87617;-81
2022/11/26 04:02:50;;;;;;;2.70;1.80;;;19.70;62.70;;;;;;5017509;28;88243;-82
2022/11/26 04:05:15;;;;;;;4.10;1.85;;;19.70;62.60;;;;;;5018719;28;87091;-81
2022/11/26 04:07:41;;;;;;;2.58;1.70;;;19.70;62.60;;;;;;5020721;27;87452;-81
2022/11/26 04:10:07;;;;;;;3.65;2.05;;;19.70;62.80;;;;;;5017641;28;87478;-82
2022/11/26 04:12:33;;;;;;;2.60;1.67;;;19.70;62.60;;;;;;5017639;27;88965;-81
2022/11/26 04:14:59;;;;;;;4.50;1.95;;;19.70;62.40;;;;;;4994072;28;90162;-81
2022/11/26 04:17:24;;;;;;;3.60;1.88;;;19.70;62.50;;;;;;5013131;28;87888;-82
2022/11/26 04:19:51;;;;;;;2.92;1.60;;;19.70;62.50;;;;;;5016251;27;87763;-81
2022/11/26 04:22:16;;;;;;;3.15;2.05;;;19.70;62.70;;;;;;5019973;27;87991;-81
2022/11/26 04:24:42;;;;;;;4.65;1.83;;;19.70;62.60;;;;;;5018548;28;88752;-81
2022/11/26 04:27:08;;;;;;;3.60;2.00;;;19.60;62.70;;;;;;5018277;27;87208;-82
2022/11/26 04:29:35;;;;;;;2.55;1.60;;;19.60;62.60;;;;;;5017555;27;86586;-82
2022/11/26 04:32:00;;;;;;;2.60;1.80;;;19.60;62.40;;;;;;5018906;27;88309;-82
2022/11/26 04:34:26;;;;;;;3.10;1.85;;;19.60;62.60;;;;;;5016642;27;87313;-81
2022/11/26 04:36:51;;;;;;;2.53;1.70;;;19.60;62.60;;;;;;5018280;28;88560;-81
2022/11/26 04:39:17;;;;;;;2.50;1.60;;;19.60;62.60;;;;;;5017881;27;87651;-82
2022/11/26 04:41:43;;;;;;;2.53;1.80;;;19.60;62.50;;;;;;5017148;27;88484;-82
2022/11/26 04:44:08;;;;;;;3.72;2.08;;;19.60;62.40;;;;;;5018923;27;87428;-82
2022/11/26 04:46:34;;;;;;;2.63;1.70;;;19.60;62.40;;;;;;5015485;28;87304;-82
2022/11/26 04:48:59;;;;;;;3.25;1.70;;;19.60;62.60;;;;;;5018795;28;87328;-82
2022/11/26 04:51:27;;;;;;;2.35;1.83;;;19.60;62.50;;;;;;5017617;27;88513;-81
2022/11/26 04:53:53;;;;;;;2.90;1.88;;;19.60;62.60;;;;;;5017882;28;87584;-82
2022/11/26 04:56:18;;;;;;;1.85;1.33;;;19.60;62.50;;;;;;5017454;27;87274;-81
2022/11/26 04:58:44;;;;;;;2.65;1.50;;;19.50;62.50;;;;;;5016122;27;88610;-82
2022/11/26 05:01:09;;;;;;;2.65;1.83;;;19.50;62.30;;;;;;5019967;28;90338;-81
2022/11/26 05:03:35;;;;;;;2.35;1.80;;;19.60;62.50;;;;;;5017410;27;88425;-81
2022/11/26 05:06:01;;;;;;;1.80;1.50;;;19.50;62.40;;;;;;5017958;28;87384;-81
2022/11/26 05:08:27;;;;;;;1.98;1.40;;;19.50;62.30;;;;;;5017580;28;88275;-81
2022/11/26 05:10:54;;;;;;;3.47;1.83;;;19.50;62.50;;;;;;5017458;27;88066;-82
2022/11/26 05:13:19;;;;;;;2.80;1.70;;;19.50;62.40;;;;;;5018484;27;87632;-82
2022/11/26 05:15:45;;;;;;;2.55;1.90;;;19.50;62.30;;;;;;5017855;28;87233;-81
2022/11/26 05:18:11;;;;;;;2.53;1.60;;;19.50;62.40;;;;;;5018563;28;86832;-81
2022/11/26 05:20:37;;;;;;;2.10;1.40;;;19.50;62.40;;;;;;5017788;27;89511;-81
2022/11/26 05:23:02;;;;;;;2.28;1.40;;;19.50;62.50;;;;;;5017795;27;87555;-82
2022/11/26 05:25:28;;;;;;;2.22;1.50;;;19.50;62.30;;;;;;5017380;27;89089;-81
2022/11/26 05:27:53;;;;;;;2.78;1.30;;;19.40;62.40;;;;;;5017644;28;87118;-82
2022/11/26 05:30:19;;;;;;;3.13;1.95;;;19.40;62.50;;;;;;5015479;27;88282;-81
2022/11/26 05:32:45;;;;;;;2.67;1.50;;;19.40;62.50;;;;;;5015351;27;87529;-81
2022/11/26 05:35:10;;;;;;;3.15;1.80;;;19.40;62.30;;;;;;5017681;28;88376;-82
2022/11/26 05:37:36;;;;;;;2.72;1.60;;;19.40;62.20;;;;;;5019729;27;87694;-81
2022/11/26 05:40:02;;;;;;;3.42;1.98;;;19.40;62.30;;;;;;5017347;28;88038;-82
2022/11/26 05:42:28;;;;;;;2.28;1.52;;;19.40;62.30;;;;;;5017355;27;89631;-82
2022/11/26 05:44:53;;;;;;;2.83;1.45;;;19.40;62.30;;;;;;5016427;27;87502;-82
2022/11/26 05:47:19;;;;;;;1.75;1.35;;;19.40;62.30;;;;;;5015748;28;88356;-82
2022/11/26 05:49:44;;;;;;;2.40;1.50;;;19.40;62.40;;;;;;5017282;27;88437;-82
2022/11/26 05:52:10;;;;;;;2.72;1.73;;;19.40;62.30;;;;;;5015061;28;89183;-81
2022/11/26 05:54:36;;;;;;;2.88;1.77;;;19.40;62.20;;;;;;5017291;28;87023;-82
2022/11/26 05:57:01;;;;;;;2.72;1.73;;;19.40;62.30;;;;;;5018210;27;87286;-81
2022/11/26 05:59:27;;;;;;;2.63;1.70;;;19.40;62.20;;;;;;5013899;27;88299;-81
2022/11/26 06:01:53;;;;;;;2.58;1.48;;;19.40;62.10;;;;;;5016608;27;88065;-82
2022/11/26 06:04:19;;;;;;;3.45;1.67;;;19.40;62.20;;;;;;5016240;28;87646;-81
2022/11/26 06:06:44;;;;;;;2.42;1.60;;;19.40;62.20;;;;;;5016722;28;87428;-82
2022/11/26 06:09:10;;;;;;;2.42;1.70;;;19.40;62.30;;;;;;5015327;27;87948;-82
2022/11/26 06:11:35;;;;;;;3.10;1.48;;;19.40;62.10;;;;;;5013890;28;89770;-82
2022/11/26 06:14:01;;;;;;;2.22;1.50;;;19.30;62.10;;;;;;5015475;28;88491;-81
2022/11/26 06:16:26;;;;;;;3.67;1.75;;;19.30;62.20;;;;;;5016079;28;87252;-81
2022/11/26 06:18:52;;;;;;;2.05;1.42;;;19.30;62.20;;;;;;5017020;28;87998;-81
2022/11/26 06:21:18;;;;;;;2.20;1.60;;;19.30;62.10;;;;;;5021596;27;87698;-81
2022/11/26 06:23:43;;;;;;;2.35;1.60;;;19.30;62.10;;;;;;5018790;27;87432;-81
2022/11/26 06:26:11;;;;;;;2.88;1.65;;;19.30;62.00;;;;;;5015646;28;86955;-82
2022/11/26 06:28:37;;;;;;;2.33;1.38;;;19.30;62.00;;;;;;5015171;28;87851;-81
2022/11/26 06:31:03;;;;;;;2.22;1.55;;;19.30;62.00;;;;;;5016549;28;90933;-82
2022/11/26 06:33:29;;;;;;;2.13;1.50;;;19.30;62.00;;;;;;5017830;27;87730;-82
2022/11/26 06:36:03;;;;;;;2.35;1.27;;;19.30;62.00;;;;;;5017712;27;87671;-81
2022/11/26 06:38:28;;;;;;;3.30;1.30;;;19.30;62.70;;;;;;5016821;27;89681;-82
2022/11/26 06:40:59;;;;;;;2.58;1.58;;;19.40;62.30;;;;;;5019154;27;89240;-82
2022/11/26 06:43:26;;;;;;;5.57;2.15;;;19.30;61.70;;;;;;5017324;28;88409;-82
2022/11/26 06:45:52;;;;;;;3.38;1.75;;;19.40;60.30;;;;;;5017286;27;86965;-82
2022/11/26 06:48:20;;;;;;;1.85;1.30;;;19.40;61.10;;;;;;5019196;27;88524;-82
2022/11/26 06:50:46;;;;;;;2.70;1.40;;;19.40;61.40;;;;;;5019535;28;88256;-82
2022/11/26 06:53:12;;;;;;;4.57;1.90;;;19.50;61.40;;;;;;5016512;28;87389;-82
2022/11/26 06:55:37;;;;;;;3.45;1.60;;;19.60;60.80;;;;;;5018629;27;86844;-83
2022/11/26 06:58:03;;;;;;;4.53;1.65;;;19.70;60.20;;;;;;5025108;28;88327;-83
2022/11/26 07:00:28;;;;;;;3.20;1.70;;;19.80;59.20;;;;;;5024352;28;87998;-83
2022/11/26 07:02:54;;;;;;;5.30;2.08;;;19.90;58.70;;;;;;5021781;27;88447;-83
2022/11/26 07:05:19;;;;;;;5.03;1.70;;;20.00;59.30;;;;;;5023124;28;87424;-82
2022/11/26 07:07:45;;;;;;;2.60;1.48;;;20.10;59.50;;;;;;5020665;27;88173;-82
2022/11/26 07:10:11;;;;;;;4.53;2.08;;;20.20;59.50;;;;;;5021328;28;87319;-82
2022/11/26 07:12:36;;;;;;;3.67;1.60;;;20.30;59.80;;;;;;5020633;28;87639;-81
2022/11/26 07:15:02;;;;;;;3.80;1.63;;;20.30;59.70;;;;;;5021069;27;87341;-81
2022/11/26 07:17:28;;;;;;;4.22;1.80;;;20.30;59.60;;;;;;5016370;27;90363;-81
2022/11/26 07:19:53;;;;;;;3.75;1.73;;;20.30;59.60;;;;;;5019527;27;87794;-81
2022/11/26 07:22:19;;;;;;;4.13;1.50;;;20.40;59.50;;;;;;5009560;28;87276;-82
2022/11/26 07:24:44;;;;;;;3.58;1.85;;;20.40;59.60;;;;;;5035267;27;87100;-82
2022/11/26 07:27:10;;;;;;;8.68;1.92;;;20.20;59.60;;;;;;5016389;27;90261;-82
2022/11/26 07:29:35;;;;;;;3.58;1.63;;;20.20;59.80;;;;;;5018491;27;89122;-82
2022/11/26 07:32:01;;;;;;;3.58;1.50;;;20.20;59.90;;;;;;5019153;27;86948;-82
2022/11/26 07:34:27;;;;;;;3.15;1.90;;;20.10;59.90;;;;;;5019442;27;87744;-82
2022/11/26 07:36:52;;;;;;;4.13;1.58;;;20.10;60.10;;;;;;5017944;28;90594;-82
2022/11/26 07:39:18;;;;;;;2.97;1.38;;;20.10;60.20;;;;;;5018696;27;88863;-82
2022/11/26 07:41:43;;;;;;;2.72;1.70;;;20.00;60.10;;;;;;5019336;27;87216;-82
2022/11/26 07:44:13;;;;;;;3.40;1.80;;;20.00;60.10;;;;;;5019659;27;86927;-81
2022/11/26 07:46:39;;;;;;;3.80;1.70;;;20.00;60.40;;;;;;5018347;27;87635;-81
2022/11/26 07:49:05;;;;;;;3.65;1.63;;;20.00;60.30;;;;;;5019949;27;87952;-81
2022/11/26 07:51:32;;;;;;;3.35;1.60;;;20.00;60.30;;;;;;5019013;27;88624;-81
2022/11/26 07:54:01;;;;;;;2.95;1.52;;;19.90;60.30;;;;;;5018765;27;87403;-81
2022/11/26 07:56:27;;;;;;;2.15;1.48;;;19.90;60.50;;;;;;5017424;27;88892;-80
2022/11/26 07:58:52;;;;;;;2.55;1.52;;;19.90;60.60;;;;;;5016422;27;88058;-81
2022/11/26 08:01:25;;;;;;;7.35;1.98;;;20.10;60.20;;;;;;5018701;27;87563;-81
2022/11/26 08:03:52;;;;;;;7.03;1.92;;;20.20;59.80;;;;;;5027930;27;87685;-81
2022/11/26 08:06:23;;;;;;;7.22;2.28;;;20.30;59.10;;;;;;5014435;27;88172;-81
2022/11/26 08:08:49;;;;;;;10.27;2.03;;;20.40;58.70;;;;;;5015596;28;88114;-81
2022/11/26 08:11:18;;;;;;;5.82;2.08;;;20.50;58.20;;;;;;5017229;28;87073;-81
2022/11/26 08:13:45;;;;;;;6.28;1.50;;;20.50;58.50;;;;;;5006897;27;86975;-81
2022/11/26 08:16:11;;;;;;;8.73;2.03;;;20.60;58.70;;;;;;5016461;28;89995;-82
2022/11/26 08:18:38;;;;;;;5.05;1.95;;;20.60;58.60;;;;;;5017828;28;90527;-82
2022/11/26 08:21:04;;;;;;;8.90;3.13;;;20.60;58.80;;;;;;5019660;27;87253;-81
2022/11/26 08:23:31;;;;;;;87.53;16.20;;;20.70;58.90;;;;;;5018987;27;90315;-81
2022/11/26 08:25:57;;;;;;;60.05;12.57;;;20.70;57.90;;;;;;5019084;28;88292;-81
2022/11/26 08:28:23;;;;;;;38.55;9.77;;;20.70;57.10;;;;;;5017268;28;87785;-81
2022/11/26 08:30:49;;;;;;;48.13;8.90;;;20.70;57.20;;;;;;5014704;28;87274;-81
2022/11/26 08:33:14;;;;;;;30.10;7.10;;;20.80;57.60;;;;;;5018762;27;86680;-80
2022/11/26 08:35:40;;;;;;;32.97;7.25;;;20.70;58.80;;;;;;5016893;27;88607;-81
2022/11/26 08:38:06;;;;;;;30.10;6.75;;;20.80;59.00;;;;;;5020436;27;87652;-81
2022/11/26 08:40:32;;;;;;;24.83;6.55;;;20.80;59.10;;;;;;5014044;27;88499;-81
2022/11/26 08:42:57;;;;;;;28.65;6.70;;;20.80;59.20;;;;;;5013758;28;87482;-80
2022/11/26 08:45:23;;;;;;;25.52;7.20;;;20.80;58.80;;;;;;5011995;27;88192;-81
2022/11/26 08:47:49;;;;;;;24.98;7.05;;;20.80;58.90;;;;;;5016162;27;87915;-80
2022/11/26 08:50:15;;;;;;;29.65;7.57;;;20.80;59.20;;;;;;5016821;27;87453;-80
2022/11/26 08:52:41;;;;;;;26.48;8.07;;;20.80;60.10;;;;;;5016947;27;87214;-81
2022/11/26 08:55:07;;;;;;;25.25;7.80;;;20.70;60.40;;;;;;5016306;28;87832;-80
2022/11/26 08:57:33;;;;;;;23.00;6.68;;;20.70;60.80;;;;;;5015199;28;86609;-80
2022/11/26 08:59:58;;;;;;;25.30;7.35;;;20.70;60.80;;;;;;5015844;27;87687;-80
2022/11/26 09:02:24;;;;;;;27.88;7.20;;;20.70;61.90;;;;;;5015522;28;87855;-80
2022/11/26 09:04:50;;;;;;;27.50;8.20;;;20.80;61.80;;;;;;5014023;27;89650;-80
2022/11/26 09:07:15;;;;;;;26.70;7.97;;;20.80;62.90;;;;;;5014932;28;89539;-80
2022/11/26 09:09:41;;;;;;;27.33;7.75;;;20.80;62.60;;;;;;5012418;28;87355;-81
2022/11/26 09:12:07;;;;;;;25.55;7.28;;;20.80;61.90;;;;;;5011475;27;88442;-80
2022/11/26 09:14:38;;;;;;;31.00;7.75;;;20.80;62.30;;;;;;5013699;27;88160;-80
2022/11/26 09:17:08;;;;;;;26.00;7.60;;;20.80;62.80;;;;;;5010218;27;89224;-80
2022/11/26 09:19:34;;;;;;;25.25;7.90;;;20.70;63.20;;;;;;5014998;27;87104;-81
2022/11/26 09:22:00;;;;;;;26.48;7.90;;;20.80;63.60;;;;;;5014766;28;86836;-82
2022/11/26 09:24:25;;;;;;;22.80;7.32;;;20.80;62.50;;;;;;5013178;28;94619;-81
2022/11/26 09:26:51;;;;;;;27.20;7.38;;;20.80;62.50;;;;;;5015596;28;88383;-81
2022/11/26 09:29:19;;;;;;;23.20;6.43;;;20.80;62.30;;;;;;5012281;28;87900;-81
2022/11/26 09:31:46;;;;;;;22.85;7.25;;;20.80;62.30;;;;;;5012659;27;86924;-81
2022/11/26 09:34:13;;;;;;;24.30;6.68;;;20.80;62.70;;;;;;5018450;27;88635;-80
2022/11/26 09:36:38;;;;;;;19.48;6.65;;;20.90;62.70;;;;;;5010565;28;88675;-81
2022/11/26 09:39:05;;;;;;;22.75;6.78;;;20.80;62.40;;;;;;5013894;27;87377;-80
2022/11/26 09:41:53;;;;;;;20.90;6.78;;;20.80;62.50;;;;;;5013631;28;95245;-81
2022/11/26 09:44:38;;;;;;;22.92;7.07;;;20.80;62.60;;;;;;5016974;27;88409;-80
2022/11/26 09:47:21;;;;;;;24.30;6.97;;;20.80;62.50;;;;;;5011766;27;88466;-80
2022/11/26 09:50:10;;;;;;;22.90;6.43;;;20.80;62.60;;;;;;5015105;28;87290;-80
2022/11/26 09:53:17;;;;;;;24.48;7.15;;;20.80;62.60;;;;;;5013346;27;87515;-81
2022/11/26 09:55:45;;;;;;;23.48;6.90;;;20.90;62.50;;;;;;4942096;28;88550;-80
2022/11/26 09:58:28;;;;;;;22.35;5.45;;;21.00;62.30;;;;;;4943177;28;88340;-81
2022/11/26 10:00:56;;;;;;;19.67;6.60;;;20.90;62.40;;;;;;4942784;28;87900;-80
2022/11/26 10:03:29;;;;;;;21.33;6.43;;;20.90;62.50;;;;;;4942998;28;88163;-80
2022/11/26 10:06:42;;;;;;;21.33;6.22;;;21.00;62.00;;;;;;4943226;28;89097;-81
2022/11/26 10:09:23;;;;;;;27.10;7.90;;;21.10;60.70;;;;;;4884764;28;88468;-80
2022/11/26 10:11:57;;;;;;;27.77;9.07;;;21.00;60.20;;;;;;4885454;28;87027;-81
2022/11/26 10:14:55;;;;;;;38.92;10.77;;;21.00;59.40;;;;;;4885731;28;87629;-82
2022/11/26 10:17:42;;;;;;;34.83;10.48;;;21.00;59.50;;;;;;4884106;28;88506;-82
2022/11/26 10:20:45;;;;;;;31.35;8.80;;;21.00;59.20;;;;;;4884176;28;88099;-81
2022/11/26 10:23:11;;;;;;;32.33;9.27;;;21.00;59.10;;;;;;4884473;28;88285;-81
2022/11/26 10:25:51;;;;;;;29.98;9.05;;;20.90;59.30;;;;;;4893194;28;87609;-82
2022/11/26 10:28:30;;;;;;;29.15;8.07;;;21.00;59.30;;;;;;4950358;28;87702;-81
2022/11/26 10:31:00;;;;;;;;;;;21.00;59.10;;;;;;4947563;28;87884;-81
2022/11/26 10:33:36;;;;;;;27.92;7.82;;;21.00;59.00;;;;;;4951321;28;87275;-82
2022/11/26 10:36:06;;;;;;;20.40;6.93;;;20.90;58.60;;;;;;4920734;28;89262;-82
2022/11/26 10:38:31;;;;;;;20.85;6.32;;;20.90;58.60;;;;;;4941520;28;88957;-81
2022/11/26 10:40:57;;;;;;;21.45;6.78;;;21.00;58.80;;;;;;5008941;28;88215;-81
2022/11/26 10:43:23;;;;;;;22.05;6.88;;;21.00;58.40;;;;;;5013409;27;87224;-82
2022/11/26 10:45:56;;;;;;;18.42;5.72;;;21.00;58.60;;;;;;5015599;28;87347;-82
2022/11/26 10:48:33;;;;;;;19.70;5.80;;;20.90;58.40;;;;;;5012889;28;88980;-81
2022/11/26 10:50:59;;;;;;;19.65;5.97;;;20.90;58.20;;;;;;5018775;27;89333;-83
2022/11/26 10:53:26;;;;;;;19.67;5.68;;;20.90;58.00;;;;;;5019038;27;88374;-84
2022/11/26 10:55:57;;;;;;;17.63;5.20;;;21.00;57.80;;;;;;5022332;27;87659;-83
2022/11/26 10:58:26;;;;;;;18.55;5.65;;;21.00;57.90;;;;;;5020922;27;87725;-83
2022/11/26 11:01:01;;;;;;;23.38;6.35;;;21.00;58.30;;;;;;5020555;28;88620;-84
2022/11/26 11:03:35;;;;;;;21.05;6.45;;;21.00;59.40;;;;;;5019031;28;87471;-83
2022/11/26 11:06:20;;;;;;;15.77;5.15;;;21.00;60.70;;;;;;5012029;28;87426;-83
2022/11/26 11:08:48;;;;;;;20.98;6.60;;;21.10;60.60;;;;;;5020544;27;88689;-83
2022/11/26 11:11:25;;;;;;;18.33;5.53;;;21.20;60.40;;;;;;5020390;28;87815;-83
2022/11/26 11:13:54;;;;;;;19.95;5.68;;;21.30;60.40;;;;;;5019796;27;88445;-83
2022/11/26 11:16:27;;;;;;;19.65;5.93;;;21.40;60.20;;;;;;5018990;27;86933;-83
2022/11/26 11:18:59;;;;;;;17.95;5.50;;;21.60;60.20;;;;;;5018637;28;88694;-83
2022/11/26 11:21:33;;;;;;;15.07;5.13;;;21.60;60.00;;;;;;5017900;27;87906;-82
2022/11/26 11:24:22;;;;;;;16.50;5.55;;;21.60;59.90;;;;;;5018608;27;87651;-83
2022/11/26 11:26:56;;;;;;;23.98;5.70;;;21.70;60.00;;;;;;5019796;27;87412;-83
2022/11/26 11:29:38;;;;;;;13.13;4.75;;;21.70;59.90;;;;;;5018369;27;90280;-84
2022/11/26 11:32:25;;;;;;;14.98;5.28;;;21.80;60.00;;;;;;5020835;28;87707;-85
2022/11/26 11:34:51;;;;;;;15.32;5.07;;;21.70;60.00;;;;;;5020289;27;87427;-84
2022/11/26 11:37:22;;;;;;;21.63;5.28;;;21.70;59.60;;;;;;5017726;28;87234;-84
2022/11/26 11:40:12;;;;;;;15.75;5.25;;;21.60;59.60;;;;;;5019059;28;89212;-84
2022/11/26 11:42:39;;;;;;;15.73;5.60;;;21.60;59.90;;;;;;5021807;27;89166;-84
2022/11/26 11:45:17;;;;;;;17.13;5.53;;;21.60;60.10;;;;;;5021029;28;87503;-84
2022/11/26 11:47:43;;;;;;;17.70;4.80;;;21.60;60.40;;;;;;5022138;27;87505;-84
2022/11/26 11:50:32;;;;;;;14.45;5.13;;;21.60;60.40;;;;;;5022288;27;88575;-84
2022/11/26 11:53:19;;;;;;;10.43;4.35;;;21.60;60.50;;;;;;5022359;27;89035;-86
2022/11/26 11:56:03;;;;;;;19.58;5.43;;;21.60;60.80;;;;;;4967575;27;88178;-84
2022/11/26 11:58:44;;;;;;;12.48;4.68;;;21.60;60.80;;;;;;5023559;28;87677;-83
2022/11/26 12:01:36;;;;;;;18.77;5.53;;;21.60;61.10;;;;;;5021399;28;90460;-84
2022/11/26 12:04:11;;;;;;;17.08;5.53;;;21.50;61.00;;;;;;4960888;28;92234;-84
2022/11/26 12:07:13;;;;;;;17.17;4.78;;;21.50;61.50;;;;;;4958734;28;88578;-84
2022/11/26 12:09:52;;;;;;;23.95;5.85;;;21.50;61.90;;;;;;4950383;28;87584;-84
2022/11/26 12:12:27;;;;;;;15.30;4.85;;;21.40;61.90;;;;;;4959557;28;88509;-84
2022/11/26 12:15:04;;;;;;;16.58;5.57;;;21.30;62.10;;;;;;4959723;28;88885;-84
2022/11/26 12:17:37;;;;;;;17.55;5.35;;;21.30;62.20;;;;;;4960176;28;87417;-83
2022/11/26 12:20:13;;;;;;;19.23;5.50;;;21.30;62.00;;;;;;4959140;28;88181;-84
2022/11/26 12:22:52;;;;;;;16.33;4.78;;;21.30;61.70;;;;;;4958608;28;88225;-84
2022/11/26 12:25:31;;;;;;;14.33;5.00;;;21.20;61.80;;;;;;4960749;28;88875;-83
2022/11/26 12:28:11;;;;;;;18.52;5.20;;;21.20;62.20;;;;;;4961104;28;87711;-84
2022/11/26 12:30:55;;;;;;;16.50;5.38;;;21.10;62.10;;;;;;4960738;28;87757;-84
2022/11/26 12:33:42;;;;;;;15.00;4.70;;;21.10;62.40;;;;;;4959197;28;96714;-83
2022/11/26 12:36:34;;;;;;;12.00;5.05;;;21.10;62.30;;;;;;4958798;28;89314;-84
2022/11/26 12:39:17;;;;;;;13.15;4.90;;;21.10;62.60;;;;;;4959819;28;87317;-84
2022/11/26 12:41:50;;;;;;;18.15;4.57;;;21.00;62.60;;;;;;4998246;28;90138;-84
2022/11/26 12:44:42;;;;;;;14.90;4.65;;;21.00;62.70;;;;;;5020658;27;88253;-84
2022/11/26 12:47:33;;;;;;;17.83;4.90;;;21.00;62.50;;;;;;5022342;27;89573;-84
2022/11/26 12:50:11;;;;;;;11.30;4.28;;;21.10;62.30;;;;;;4940613;28;87150;-84
2022/11/26 12:52:41;;;;;;;12.18;4.82;;;21.10;62.50;;;;;;4938671;28;88935;-84
2022/11/26 12:55:19;;;;;;;11.13;4.72;;;21.10;62.30;;;;;;4939834;28;88696;-84
2022/11/26 12:58:01;;;;;;;11.98;4.50;;;21.10;62.30;;;;;;4940355;28;92554;-84
2022/11/26 13:00:30;;;;;;;12.18;4.70;;;21.10;62.60;;;;;;4940346;28;88443;-84